Time;durP1;ratioP1;P1;durP2;ratioP2;P2;SDS_P1;SDS_P2;PMS_P1;PMS_P2;Temp;Humidity;BMP_temperature;BMP_pressure;BME280_temperature;BME280_humidity;BME280_pressure;Samples;Min_cycle;Max_cycle;Signal;HPM_P1;HPM_P2
2023/03/25 00:07:33;;;;;;;4.07;1.00;;;10.10;1.00;;;;;;20640592;28;20057;-43
2023/03/25 00:17:35;;;;;;;6.05;1.95;;;10.10;1.00;;;;;;20643447;28;20035;-42
2023/03/25 00:27:37;;;;;;;2.88;1.40;;;10.10;1.00;;;;;;20648295;28;20557;-42
2023/03/25 00:37:38;;;;;;;4.18;1.42;;;10.10;1.00;;;;;;20644773;28;20536;-42
2023/03/25 00:47:40;;;;;;;5.20;1.15;;;10.10;1.00;;;;;;20641751;28;20061;-42
2023/03/25 00:57:41;;;;;;;5.90;1.20;;;10.00;1.00;;;;;;20637342;28;20052;-42
2023/03/25 01:07:44;;;;;;;7.95;1.35;;;10.00;1.00;;;;;;20635975;28;20168;-42
2023/03/25 01:17:45;;;;;;;9.93;2.53;;;9.90;1.00;;;;;;20583409;28;20039;-42
2023/03/25 01:27:47;;;;;;;2.30;0.98;;;10.00;1.00;;;;;;20569260;28;20038;-42
2023/03/25 01:37:48;;;;;;;4.55;1.65;;;9.90;1.00;;;;;;20559539;28;20637;-42
2023/03/25 01:47:59;;;;;;;10.27;2.80;;;9.80;1.00;;;;;;20559962;28;20042;-41
2023/03/25 01:58:06;;;;;;;6.10;1.77;;;9.20;8.30;;;;;;20551113;28;20518;-41
2023/03/25 02:08:08;;;;;;;3.80;1.70;;;8.90;28.10;;;;;;20547404;28;20042;-42
2023/03/25 02:18:23;;;;;;;5.82;1.70;;;8.90;36.10;;;;;;20543170;28;20072;-39
2023/03/25 02:28:46;;;;;;;7.25;3.03;;;9.00;34.00;;;;;;20632414;28;20034;-40
2023/03/25 02:39:13;;;;;;;6.18;1.00;;;9.00;33.60;;;;;;20627625;28;20046;-39
2023/03/25 02:49:22;;;;;;;5.60;1.80;;;9.10;25.90;;;;;;20633107;28;20509;-40
2023/03/25 02:59:31;;;;;;;5.30;2.42;;;9.20;22.00;;;;;;20633177;28;20050;-42
2023/03/25 03:09:45;;;;;;;7.53;1.70;;;9.20;20.70;;;;;;20642634;28;20049;-39
2023/03/25 03:20:00;;;;;;;4.88;1.65;;;9.30;19.50;;;;;;20634623;28;20294;-42
2023/03/25 03:30:05;;;;;;;12.68;3.47;;;9.20;23.60;;;;;;20562576;28;20035;-42
2023/03/25 03:40:11;;;;;;;3.90;0.90;;;9.10;30.00;;;;;;20552568;28;20049;-42
2023/03/25 03:50:22;;;;;;;6.85;1.48;;;9.10;36.80;;;;;;20557907;28;20039;-41
2023/03/25 04:00:32;;;;;;;5.40;2.00;;;9.10;40.90;;;;;;20645158;28;20601;-40
2023/03/25 04:10:51;;;;;;;2.92;1.27;;;8.80;96.60;;;;;;20648495;28;20034;-38
2023/03/25 04:20:52;;;;;;;11.00;1.60;;;8.60;99.90;;;;;;20570608;28;20589;-38
2023/03/25 04:30:55;;;;;;;6.65;1.63;;;8.50;99.90;;;;;;20556391;28;20383;-38
2023/03/25 04:40:57;;;;;;;6.80;2.00;;;8.40;99.90;;;;;;20566640;28;20053;-38
2023/03/25 04:50:59;;;;;;;7.28;3.40;;;8.50;99.90;;;;;;20552241;28;20368;-38
2023/03/25 05:01:04;;;;;;;6.97;1.90;;;8.50;99.90;;;;;;20552860;28;20047;-39
2023/03/25 05:11:06;;;;;;;7.18;2.15;;;8.50;99.90;;;;;;20550215;28;20047;-38
2023/03/25 05:21:07;;;;;;;8.13;2.20;;;8.60;99.90;;;;;;20554868;28;20511;-41
2023/03/25 05:31:08;;;;;;;4.18;1.65;;;8.80;88.10;;;;;;20558050;28;20445;-39
2023/03/25 05:41:17;;;;;;;10.73;3.20;;;9.00;58.10;;;;;;20551106;28;20047;-41
2023/03/25 05:51:20;;;;;;;5.32;1.98;;;8.90;39.50;;;;;;20628078;28;20038;-41
2023/03/25 06:01:21;;;;;;;6.00;2.10;;;8.70;30.30;;;;;;20630454;28;20041;-41
2023/03/25 06:11:23;;;;;;;22.02;3.33;;;8.80;30.30;;;;;;20587030;28;20034;-38
2023/03/25 06:21:25;;;;;;;3.72;1.27;;;9.00;18.40;;;;;;20632750;28;20057;-41
2023/03/25 06:31:26;;;;;;;9.30;1.70;;;9.00;27.60;;;;;;20646745;28;20045;-38
2023/03/25 06:41:28;;;;;;;11.02;3.35;;;8.80;44.00;;;;;;20565473;28;20057;-38
2023/03/25 06:51:29;;;;;;;11.55;3.13;;;8.60;64.10;;;;;;20565836;28;20039;-38
2023/03/25 07:01:30;;;;;;;8.15;2.65;;;8.60;57.30;;;;;;20571106;28;20062;-38
2023/03/25 07:11:32;;;;;;;5.15;2.03;;;8.80;32.90;;;;;;20565811;28;20042;-39
2023/03/25 07:21:33;;;;;;;6.35;1.88;;;8.90;25.70;;;;;;20563999;28;20038;-41
2023/03/25 07:31:34;;;;;;;7.40;2.88;;;9.20;21.80;;;;;;20553864;28;20240;-39
2023/03/25 07:41:35;;;;;;;12.93;1.58;;;9.30;12.60;;;;;;20552405;28;20130;-39
2023/03/25 07:51:36;;;;;;;5.03;1.50;;;9.40;6.80;;;;;;20563330;28;20050;-39
2023/03/25 08:01:37;;;;;;;4.00;2.15;;;9.50;3.60;;;;;;20558210;28;20061;-41
2023/03/25 08:11:38;;;;;;;4.93;1.02;;;9.60;1.00;;;;;;20559969;28;20031;-41
2023/03/25 08:21:40;;;;;;;10.30;2.30;;;9.50;1.50;;;;;;20551334;28;20057;-41
2023/03/25 08:31:41;;;;;;;5.65;2.10;;;9.60;3.50;;;;;;20569018;28;20049;-41
2023/03/25 08:41:43;;;;;;;12.95;2.15;;;9.70;2.90;;;;;;20562421;28;20035;-41
2023/03/25 08:51:44;;;;;;;2.83;1.10;;;9.80;1.00;;;;;;20557702;28;20033;-41
2023/03/25 09:01:46;;;;;;;3.92;1.98;;;10.10;1.00;;;;;;20557192;28;20057;-41
2023/03/25 09:11:47;;;;;;;10.35;2.05;;;10.20;1.00;;;;;;20548054;28;20031;-40
2023/03/25 09:21:48;;;;;;;21.02;3.45;;;10.40;1.00;;;;;;20548159;28;20042;-41
2023/03/25 09:31:49;;;;;;;12.73;3.90;;;10.40;1.00;;;;;;20571895;28;20030;-41
2023/03/25 09:42:00;;;;;;;7.20;2.10;;;10.60;1.00;;;;;;20574188;28;20145;-41
2023/03/25 09:52:02;;;;;;;5.53;2.08;;;10.70;1.00;;;;;;20551906;28;20042;-41
2023/03/25 10:02:38;;;;;;;5.72;2.35;;;10.70;1.00;;;;;;20548846;28;20069;-41
2023/03/25 10:12:45;;;;;;;14.55;2.25;;;10.90;1.00;;;;;;20547698;28;21555;-41
2023/03/25 10:23:19;;;;;;;4.00;1.77;;;11.00;1.00;;;;;;20548667;28;20065;-41
2023/03/25 10:33:39;;;;;;;5.57;1.52;;;11.20;1.00;;;;;;20561017;28;20141;-42
2023/03/25 10:43:41;;;;;;;10.45;1.30;;;11.60;1.00;;;;;;20560725;28;20738;-41
2023/03/25 10:53:51;;;;;;;7.00;1.88;;;11.50;1.00;;;;;;20550823;28;20039;-42
2023/03/25 11:03:54;;;;;;;5.43;1.30;;;11.70;1.00;;;;;;20558804;28;20057;-41
2023/03/25 11:13:56;;;;;;;4.70;1.27;;;11.30;1.00;;;;;;20579323;28;20038;-42
2023/03/25 11:23:59;;;;;;;3.83;1.70;;;11.70;1.00;;;;;;20574493;28;20050;-41
2023/03/25 11:34:12;;;;;;;1.95;1.02;;;11.80;1.00;;;;;;20568076;28;20046;-42
2023/03/25 11:44:28;;;;;;;3.92;1.30;;;12.40;1.00;;;;;;20581341;28;20035;-41
2023/03/25 11:54:29;;;;;;;9.93;2.35;;;12.80;1.00;;;;;;20662947;28;20081;-41
2023/03/25 12:04:31;;;;;;;8.85;2.03;;;12.20;1.00;;;;;;20614764;28;20054;-41
2023/03/25 12:14:47;;;;;;;6.55;1.55;;;12.20;1.00;;;;;;20637346;28;20429;-41
2023/03/25 12:25:08;;;;;;;4.18;1.75;;;12.60;1.00;;;;;;20565380;28;20050;-42
2023/03/25 12:35:41;;;;;;;2.83;1.10;;;12.60;1.00;;;;;;20556581;28;20038;-42
2023/03/25 12:46:10;;;;;;;4.00;2.03;;;13.10;1.00;;;;;;20563538;28;20043;-42
2023/03/25 12:56:25;;;;;;;4.47;1.75;;;13.30;1.00;;;;;;20554101;28;20475;-42
2023/03/25 13:06:34;;;;;;;3.70;0.80;;;13.50;1.00;;;;;;20626191;28;20062;-42
2023/03/25 13:16:38;;;;;;;5.82;1.13;;;13.20;1.00;;;;;;20630592;28;20034;-42
2023/03/25 13:26:43;;;;;;;5.28;1.27;;;13.20;1.00;;;;;;20635550;28;20582;-42
2023/03/25 13:36:57;;;;;;;4.80;1.90;;;13.30;1.00;;;;;;20638410;28;20041;-42
2023/03/25 13:47:33;;;;;;;1.65;0.52;;;12.70;1.00;;;;;;20633129;28;20409;-42
2023/03/25 13:57:52;;;;;;;12.30;1.00;;;12.10;1.00;;;;;;20556182;28;20042;-41
2023/03/25 14:08:18;;;;;;;1.48;0.45;;;11.00;1.00;;;;;;20572219;28;20062;-41
2023/03/25 14:18:20;;;;;;;6.07;2.15;;;10.70;2.80;;;;;;20641114;28;20335;-41
2023/03/25 14:28:37;;;;;;;3.47;1.13;;;12.50;1.00;;;;;;20636536;28;20045;-42
2023/03/25 14:38:53;;;;;;;4.97;1.23;;;12.50;1.00;;;;;;20637685;28;20137;-41
2023/03/25 14:49:04;;;;;;;2.65;0.82;;;12.70;1.00;;;;;;20654910;28;20042;-41
2023/03/25 14:59:18;;;;;;;1.42;0.60;;;12.30;1.00;;;;;;20652593;28;20064;-41
2023/03/25 15:09:20;;;;;;;2.42;0.82;;;12.10;1.00;;;;;;20571711;28;20467;-42
2023/03/25 15:19:22;;;;;;;0.40;0.20;;;12.10;1.00;;;;;;20566183;28;20069;-42
2023/03/25 15:29:47;;;;;;;5.78;0.63;;;10.90;1.00;;;;;;20567012;28;20035;-42
2023/03/25 15:40:12;;;;;;;2.85;0.63;;;10.30;1.00;;;;;;20566130;28;20046;-41
2023/03/25 15:50:33;;;;;;;2.00;0.47;;;10.00;1.00;;;;;;20561585;28;20066;-42
2023/03/25 16:00:41;;;;;;;1.40;0.68;;;10.00;1.00;;;;;;20613447;28;20425;-42
2023/03/25 16:10:45;;;;;;;4.97;1.55;;;10.10;1.00;;;;;;20562118;28;20042;-42
2023/03/25 16:20:46;;;;;;;2.80;1.48;;;10.20;1.00;;;;;;20563295;28;20050;-42
2023/03/25 16:30:51;;;;;;;3.00;1.00;;;10.10;1.00;;;;;;20575477;28;20042;-41
2023/03/25 16:41:00;;;;;;;3.40;1.25;;;9.60;14.80;;;;;;20563133;28;20049;-41
2023/03/25 16:51:15;;;;;;;4.85;1.38;;;9.30;29.30;;;;;;20574912;28;20039;-40
2023/03/25 17:01:16;;;;;;;10.55;2.08;;;9.30;38.20;;;;;;20567565;28;20095;-41
2023/03/25 17:11:19;;;;;;;12.05;2.97;;;9.20;61.40;;;;;;20562186;28;20514;-40
2023/03/25 17:21:32;;;;;;;5.25;1.60;;;9.20;90.60;;;;;;20563218;28;20058;-41
2023/03/25 17:31:37;;;;;;;19.08;3.97;;;9.30;54.60;;;;;;20650847;28;20414;-41
2023/03/25 17:41:39;;;;;;;8.60;1.90;;;9.40;62.80;;;;;;20642501;28;20513;-41
2023/03/25 17:51:40;;;;;;;9.00;1.73;;;9.60;52.30;;;;;;20651911;28;20041;-41
2023/03/25 18:01:41;;;;;;;12.32;5.82;;;9.50;46.20;;;;;;20635173;28;20644;-41
2023/03/25 18:11:44;;;;;;;6.57;2.83;;;9.30;50.70;;;;;;20651915;28;20038;-41
2023/03/25 18:21:45;;;;;;;3.47;1.10;;;9.30;58.10;;;;;;20649886;28;20489;-41
2023/03/25 18:31:46;;;;;;;2.03;0.70;;;9.10;69.50;;;;;;20661037;28;20037;-41
2023/03/25 18:41:48;;;;;;;2.90;1.35;;;8.80;89.50;;;;;;20640570;28;20042;-41
2023/03/25 18:51:49;;;;;;;6.95;2.72;;;8.70;96.80;;;;;;20653826;28;20034;-41
2023/03/25 19:01:51;;;;;;;17.20;6.70;;;8.70;99.60;;;;;;20665888;28;20045;-41
2023/03/25 19:11:52;;;;;;;18.90;5.80;;;8.70;99.90;;;;;;20647026;28;20340;-41
2023/03/25 19:21:57;;;;;;;18.42;7.72;;;8.70;99.90;;;;;;20646782;28;20050;-41
2023/03/25 19:31:58;;;;;;;7.65;4.00;;;8.80;99.90;;;;;;20673604;28;20494;-41
2023/03/25 19:41:59;;;;;;;15.35;5.60;;;9.00;99.90;;;;;;20659330;28;21543;-41
2023/03/25 19:52:00;;;;;;;9.60;4.05;;;9.00;99.90;;;;;;20670779;28;20045;-41
2023/03/25 20:02:01;;;;;;;25.85;4.43;;;8.90;99.90;;;;;;20666197;28;20049;-41
2023/03/25 20:12:02;;;;;;;11.43;4.32;;;8.80;99.90;;;;;;20663748;28;20034;-41
2023/03/25 20:22:03;;;;;;;14.02;5.65;;;8.70;99.90;;;;;;20658192;28;20125;-41
2023/03/25 20:32:05;;;;;;;10.40;3.10;;;8.60;99.90;;;;;;20650572;28;20073;-41
2023/03/25 20:42:07;;;;;;;4.88;2.13;;;8.50;99.90;;;;;;20651516;28;20038;-41
2023/03/25 20:52:08;;;;;;;7.32;2.08;;;8.50;99.90;;;;;;20653863;28;20034;-41
2023/03/25 21:02:11;;;;;;;4.20;1.70;;;8.50;99.90;;;;;;20659236;28;20165;-41
2023/03/25 21:12:12;;;;;;;11.25;1.70;;;8.40;99.90;;;;;;20656570;28;20442;-41
2023/03/25 21:22:13;;;;;;;4.65;1.17;;;8.30;99.90;;;;;;20650673;28;20057;-41
2023/03/25 21:32:14;;;;;;;24.67;1.15;;;8.30;99.90;;;;;;20654328;28;20354;-40
2023/03/25 21:42:16;;;;;;;3.78;1.52;;;8.20;99.90;;;;;;20653443;28;20208;-41
2023/03/25 21:52:17;;;;;;;2.28;1.42;;;8.10;99.90;;;;;;20647071;28;20044;-41
2023/03/25 22:02:19;;;;;;;6.03;1.95;;;7.90;99.90;;;;;;20632075;28;20046;-41
2023/03/25 22:12:22;;;;;;;3.25;1.15;;;8.00;99.90;;;;;;20646082;28;20045;-41
2023/03/25 22:22:23;;;;;;;6.20;1.95;;;7.90;99.90;;;;;;20564928;28;20290;-42
2023/03/25 22:32:25;;;;;;;2.28;1.30;;;7.80;99.90;;;;;;20559066;28;20035;-42
2023/03/25 22:42:28;;;;;;;6.72;1.27;;;7.90;99.90;;;;;;20557539;28;20047;-42
2023/03/25 22:52:29;;;;;;;3.20;1.30;;;7.90;99.90;;;;;;20556575;28;20043;-42
2023/03/25 23:02:30;;;;;;;16.95;2.15;;;8.00;99.90;;;;;;20553269;28;20281;-42
2023/03/25 23:12:31;;;;;;;3.00;0.88;;;8.10;99.90;;;;;;20550942;28;20496;-42
2023/03/25 23:22:32;;;;;;;2.75;1.48;;;8.10;99.90;;;;;;20566660;28;20043;-42
2023/03/25 23:32:33;;;;;;;4.88;1.80;;;8.30;99.90;;;;;;20578494;28;20076;-42
2023/03/25 23:42:34;;;;;;;2.92;1.33;;;8.30;99.90;;;;;;20572553;28;20042;-42
2023/03/25 23:52:35;;;;;;;3.85;1.83;;;8.30;99.90;;;;;;20555304;28;20042;-42
